Delanco Township, New Jersey
Current Conditions -  °F | °C
As of 2:54 AM on Friday 19 Dec 2014 (Local Time) from KPNE Reporting Station
Overcast Overcast  
Wind Chill: 31°   Ceiling: 3700
Heat Index: 38°   Visibility: 10mi
Dew Point: 24°   Wind: 10mph
Humidity: 57%   Direction: 280°W
Pressure: 30.04"   Gusts: NA
Location:  40.0192°N, 74.9489°W
Report Text: KPNE 190754Z AUTO 28009KT 10SM OVC037 03/M04 A3004 RMK AO2 SLP173 T00331044 TSNO $
Loading
Personal Weather Stations






























Interactive Weather Map New forecast layout! Learn more

10-Day Weather Forecast

Advertisements
Track Severe Weather on mobile